createdAt,value
2022-09-20T00:01:22.759Z,10.25
2022-09-20T00:03:52.382Z,10.17
2022-09-20T00:06:22.296Z,10.16
2022-09-20T00:08:49.364Z,10.12
2022-09-20T00:11:19.555Z,10.11
2022-09-20T00:13:48.321Z,10.05
2022-09-20T00:16:20.715Z,10.03
2022-09-20T00:18:52.310Z,9.97
2022-09-20T00:21:22.878Z,9.91
2022-09-20T00:23:51.330Z,9.88
2022-09-20T00:26:18.086Z,9.84
2022-09-20T00:28:47.039Z,9.83
2022-09-20T00:31:14.707Z,9.81
2022-09-20T00:33:59.974Z,9.74
2022-09-20T00:36:27.531Z,9.82
2022-09-20T00:38:58.824Z,9.88
2022-09-20T00:41:26.258Z,9.75
2022-09-20T00:43:53.612Z,9.73
2022-09-20T00:46:29.668Z,9.71
2022-09-20T00:49:06.529Z,9.62
2022-09-20T00:51:38.839Z,9.58
2022-09-20T00:54:09.153Z,9.53
2022-09-20T00:56:41.345Z,9.52
2022-09-20T00:59:26.673Z,9.50
2022-09-20T01:02:00.016Z,9.45
2022-09-20T01:04:28.560Z,9.38
2022-09-20T01:06:59.526Z,9.40
2022-09-20T01:09:26.365Z,9.37
2022-09-20T01:11:56.199Z,9.34
2022-09-20T01:14:25.406Z,9.33
2022-09-20T01:16:55.179Z,9.28
2022-09-20T01:20:09.644Z,9.28
2022-09-20T01:22:58.100Z,9.26
2022-09-20T01:25:46.529Z,9.20
2022-09-20T01:28:13.801Z,9.18
2022-09-20T01:30:45.647Z,9.22
2022-09-20T01:33:23.807Z,9.23
2022-09-20T01:35:53.919Z,9.13
2022-09-20T01:38:58.207Z,9.06
2022-09-20T01:41:34.173Z,9.02
2022-09-20T01:44:38.953Z,8.94
2022-09-20T01:47:21.556Z,9.00
2022-09-20T01:49:54.098Z,8.99
2022-09-20T01:52:51.607Z,8.92
2022-09-20T01:56:09.555Z,8.92
2022-09-20T01:59:19.377Z,8.91
2022-09-20T02:01:53.622Z,8.85
2022-09-20T02:04:20.271Z,8.83
2022-09-20T02:07:28.390Z,8.84
2022-09-20T02:10:26.114Z,8.83
2022-09-20T02:12:56.077Z,8.93
2022-09-20T02:15:50.822Z,8.87
2022-09-20T02:18:29.328Z,8.82
2022-09-20T02:21:14.802Z,8.77
2022-09-20T02:23:52.461Z,8.72
2022-09-20T02:26:31.552Z,8.68
2022-09-20T02:29:22.312Z,8.63
2022-09-20T02:32:00.903Z,8.64
2022-09-20T02:34:39.351Z,8.61
2022-09-20T02:37:25.586Z,8.59
2022-09-20T02:40:26.814Z,8.56
2022-09-20T02:43:17.166Z,8.58
2022-09-20T02:46:31.411Z,8.54
2022-09-20T02:49:04.923Z,8.50
2022-09-20T02:51:41.277Z,8.48
2022-09-20T02:54:41.813Z,8.50
2022-09-20T02:57:23.335Z,8.48
2022-09-20T02:59:58.513Z,8.47
2022-09-20T03:02:38.258Z,8.44
2022-09-20T03:05:32.157Z,8.44
2022-09-20T03:08:22.067Z,8.41
2022-09-20T03:11:10.318Z,8.37
2022-09-20T03:14:12.859Z,8.34
2022-09-20T03:16:48.639Z,8.36
2022-09-20T03:19:54.978Z,8.28
2022-09-20T03:22:51.022Z,8.22
2022-09-20T03:25:26.732Z,8.21
2022-09-20T03:28:22.841Z,8.17
2022-09-20T03:31:04.857Z,8.14
2022-09-20T03:33:31.481Z,8.10
2022-09-20T03:36:13.526Z,8.08
2022-09-20T03:39:19.971Z,8.09
2022-09-20T03:41:58.810Z,8.07
2022-09-20T03:44:53.916Z,8.09
2022-09-20T03:47:42.886Z,8.07
2022-09-20T03:50:33.772Z,8.06
2022-09-20T03:53:32.261Z,8.05
2022-09-20T03:56:07.983Z,8.06
2022-09-20T03:58:41.433Z,8.04
2022-09-20T04:01:29.758Z,8.06
2022-09-20T04:04:14.375Z,8.07
2022-09-20T04:06:54.002Z,8.07
2022-09-20T04:10:09.951Z,8.08
2022-09-20T04:12:58.175Z,8.10
2022-09-20T04:15:41.972Z,8.13
2022-09-20T04:18:50.570Z,8.13
2022-09-20T04:21:27.589Z,8.12
2022-09-20T04:24:05.874Z,8.20
2022-09-20T04:26:39.490Z,8.20
2022-09-20T04:29:28.227Z,8.21
2022-09-20T04:32:36.908Z,8.22
2022-09-20T04:35:35.091Z,8.26
2022-09-20T04:38:05.606Z,8.27
2022-09-20T04:40:56.362Z,8.29
2022-09-20T04:43:38.001Z,8.28
2022-09-20T04:46:23.881Z,8.30
2022-09-20T04:49:02.629Z,8.33
2022-09-20T04:51:47.750Z,8.35
2022-09-20T04:54:51.428Z,8.39
2022-09-20T04:57:23.654Z,8.40
2022-09-20T04:59:56.001Z,8.43
2022-09-20T05:02:42.544Z,8.47
2022-09-20T05:05:40.476Z,8.49
2022-09-20T05:08:31.514Z,8.56
2022-09-20T05:11:37.762Z,8.61
2022-09-20T05:14:40.887Z,8.66
2022-09-20T05:17:22.695Z,8.68
2022-09-20T05:20:13.447Z,8.72
2022-09-20T05:23:04.117Z,8.77
2022-09-20T05:25:54.941Z,8.80
2022-09-20T05:28:31.238Z,8.85
2022-09-20T05:31:22.471Z,8.89
2022-09-20T05:34:07.968Z,8.95
2022-09-20T05:36:54.728Z,9.00
2022-09-20T05:39:42.839Z,9.05
2022-09-20T05:42:18.392Z,9.08
2022-09-20T05:44:51.559Z,9.13
2022-09-20T05:47:22.291Z,9.17
2022-09-20T05:50:26.722Z,9.21
2022-09-20T05:53:04.135Z,9.27
2022-09-20T05:55:50.399Z,9.32
2022-09-20T05:58:40.150Z,9.36
2022-09-20T06:01:15.766Z,9.40
2022-09-20T06:03:49.064Z,9.44
2022-09-20T06:06:32.370Z,9.47
2022-09-20T06:08:59.417Z,9.53
2022-09-20T06:11:28.870Z,9.60
2022-09-20T06:14:15.193Z,9.62
2022-09-20T06:17:03.124Z,9.66
2022-09-20T06:19:38.781Z,9.69
2022-09-20T06:22:21.722Z,9.72
2022-09-20T06:25:23.286Z,9.74
2022-09-20T06:28:06.671Z,9.77
2022-09-20T06:30:46.227Z,9.81
2022-09-20T06:33:12.920Z,9.81
2022-09-20T06:35:45.430Z,9.84
2022-09-20T06:38:39.942Z,9.87
2022-09-20T06:41:29.110Z,9.90
2022-09-20T06:43:59.187Z,9.92
2022-09-20T06:46:31.445Z,9.95
2022-09-20T06:48:58.935Z,9.98
2022-09-20T06:51:28.825Z,10.01
2022-09-20T06:53:57.541Z,10.05
2022-09-20T06:56:28.136Z,10.08
2022-09-20T06:58:54.870Z,10.12
2022-09-20T07:01:29.616Z,10.14
2022-09-20T07:03:57.798Z,10.20
2022-09-20T07:06:24.467Z,10.23
2022-09-20T07:08:51.286Z,10.28
2022-09-20T07:11:18.320Z,10.34
2022-09-20T07:13:45.766Z,10.41
2022-09-20T07:16:16.422Z,10.47
2022-09-20T07:18:43.243Z,10.53
2022-09-20T07:21:12.589Z,10.58
2022-09-20T07:23:39.258Z,10.62
2022-09-20T07:26:07.065Z,10.68
2022-09-20T07:28:35.066Z,10.74
2022-09-20T07:31:01.839Z,10.79
2022-09-20T07:33:28.532Z,10.84
2022-09-20T07:35:55.920Z,10.92
2022-09-20T07:38:23.115Z,10.96
2022-09-20T07:41:01.435Z,11.02
2022-09-20T07:43:29.771Z,11.06
2022-09-20T07:45:58.037Z,11.13
2022-09-20T07:48:27.519Z,11.17
2022-09-20T07:50:59.348Z,11.21
2022-09-20T07:53:26.126Z,11.26
2022-09-20T07:56:03.962Z,11.31
2022-09-20T07:58:34.102Z,11.35
2022-09-20T08:01:03.498Z,11.38
2022-09-20T08:03:31.600Z,11.41
2022-09-20T08:06:04.320Z,11.46
2022-09-20T08:08:38.964Z,11.51
2022-09-20T08:11:08.057Z,11.54
2022-09-20T08:16:28.006Z,11.59
2022-09-20T08:19:00.746Z,11.64
2022-09-20T08:21:31.672Z,11.68
2022-09-20T08:23:59.471Z,11.76
2022-09-20T08:26:28.467Z,11.83
2022-09-20T08:28:57.399Z,11.88
2022-09-20T08:31:26.927Z,11.94
2022-09-20T08:33:54.750Z,12.02
2022-09-20T08:36:26.415Z,12.10
2022-09-20T08:41:43.855Z,12.21
2022-09-20T08:44:36.783Z,12.28
2022-09-20T08:47:10.192Z,12.35
2022-09-20T08:49:38.081Z,12.41
2022-09-20T08:52:10.415Z,12.48
2022-09-20T08:54:37.415Z,12.56
2022-09-20T08:57:11.272Z,12.59
2022-09-20T08:59:38.390Z,12.64
2022-09-20T09:02:30.752Z,12.68
2022-09-20T09:04:57.794Z,12.71
2022-09-20T09:07:25.441Z,12.76
2022-09-20T09:09:55.326Z,12.79
2022-09-20T09:12:26.749Z,12.81
2022-09-20T09:14:59.719Z,12.90
2022-09-20T09:17:30.937Z,12.95
2022-09-20T09:20:16.824Z,13.00
2022-09-20T09:22:46.013Z,13.06
2022-09-20T09:25:17.252Z,13.09
2022-09-20T09:28:05.611Z,13.14
2022-09-20T09:30:38.263Z,13.24
2022-09-20T09:33:17.251Z,13.31
2022-09-20T09:35:52.223Z,13.39
2022-09-20T09:38:24.757Z,13.49
2022-09-20T09:41:05.329Z,13.57
2022-09-20T09:43:35.689Z,13.65
2022-09-20T09:46:23.597Z,13.71
2022-09-20T09:49:10.678Z,13.79
2022-09-20T09:51:42.474Z,13.91
2022-09-20T09:54:17.791Z,14.00
2022-09-20T09:57:01.941Z,14.11
2022-09-20T09:59:58.955Z,14.16
2022-09-20T10:03:03.575Z,14.22
2022-09-20T10:05:33.094Z,14.22
2022-09-20T10:08:23.475Z,14.23
2022-09-20T10:11:08.700Z,14.24
2022-09-20T10:14:03.610Z,14.30
2022-09-20T10:16:45.671Z,14.33
2022-09-20T10:19:23.439Z,14.37
2022-09-20T10:21:57.016Z,14.38
2022-09-20T10:24:51.323Z,14.43
2022-09-20T10:27:42.792Z,14.52
2022-09-20T10:30:17.325Z,14.60
2022-09-20T10:32:45.981Z,14.66
2022-09-20T10:36:00.316Z,14.70
2022-09-20T10:38:34.891Z,14.72
2022-09-20T10:41:51.023Z,14.77
2022-09-20T10:44:20.735Z,14.84
2022-09-20T10:47:02.518Z,14.84
2022-09-20T10:49:50.795Z,14.86
2022-09-20T10:52:45.139Z,14.89
2022-09-20T10:55:11.807Z,14.99
2022-09-20T10:58:01.509Z,15.04
2022-09-20T11:00:46.434Z,15.09
2022-09-20T11:03:50.396Z,15.13
2022-09-20T11:06:32.740Z,15.13
2022-09-20T11:09:03.176Z,15.15
2022-09-20T11:11:43.127Z,15.11
2022-09-20T11:14:16.414Z,15.12
2022-09-20T11:16:50.841Z,15.10
2022-09-20T11:19:23.668Z,15.11
2022-09-20T11:21:57.004Z,15.11
2022-09-20T11:24:51.048Z,15.14
2022-09-20T11:27:32.196Z,15.14
2022-09-20T11:30:15.015Z,15.13
2022-09-20T11:32:52.610Z,15.14
2022-09-20T11:35:40.623Z,15.15
2022-09-20T11:38:50.861Z,15.17
2022-09-20T11:41:30.452Z,15.22
2022-09-20T11:44:07.882Z,15.27
2022-09-20T11:46:47.937Z,15.31
2022-09-20T11:49:30.365Z,15.37
2022-09-20T11:52:40.447Z,15.46
2022-09-20T11:55:10.880Z,15.56
2022-09-20T11:57:38.616Z,15.65
2022-09-20T12:00:10.441Z,15.71
2022-09-20T12:02:49.030Z,15.75
2022-09-20T12:05:42.313Z,15.75
2022-09-20T12:08:30.534Z,15.75
2022-09-20T12:11:04.353Z,15.75
2022-09-20T12:13:35.410Z,15.74
2022-09-20T12:16:05.166Z,15.71
2022-09-20T12:18:46.056Z,15.70
2022-09-20T12:21:18.337Z,15.71
2022-09-20T12:23:46.490Z,15.73
2022-09-20T12:26:20.539Z,15.72
2022-09-20T12:28:59.215Z,15.73
2022-09-20T12:31:29.811Z,15.75
2022-09-20T12:34:01.139Z,15.77
2022-09-20T12:36:46.303Z,15.78
2022-09-20T12:39:15.296Z,15.74
2022-09-20T12:41:57.864Z,15.69
2022-09-20T12:44:30.367Z,15.65
2022-09-20T12:47:06.485Z,15.60
2022-09-20T12:49:54.851Z,15.53
2022-09-20T12:53:03.854Z,15.42
2022-09-20T12:55:33.866Z,15.28
2022-09-20T12:58:02.736Z,15.16
2022-09-20T13:00:39.519Z,15.04
2022-09-20T13:03:15.467Z,14.98
2022-09-20T13:05:47.140Z,14.90
2022-09-20T13:08:27.410Z,14.81
2022-09-20T13:11:01.879Z,14.72
2022-09-20T13:13:33.451Z,14.70
2022-09-20T13:16:05.721Z,14.69
2022-09-20T13:18:36.298Z,14.69
2022-09-20T13:21:07.241Z,14.69
2022-09-20T13:23:45.191Z,14.69
2022-09-20T13:26:13.431Z,14.71
2022-09-20T13:28:49.374Z,14.72
2022-09-20T13:31:21.854Z,14.72
2022-09-20T13:33:49.238Z,14.71
2022-09-20T13:36:24.433Z,14.72
2022-09-20T13:38:51.421Z,14.73
2022-09-20T13:41:18.272Z,14.77
2022-09-20T13:43:50.256Z,14.81
2022-09-20T13:46:28.489Z,14.86
2022-09-20T13:49:23.959Z,14.89
2022-09-20T13:51:51.287Z,14.94
2022-09-20T13:54:32.743Z,14.96
2022-09-20T13:57:06.783Z,14.96
2022-09-20T13:59:40.153Z,14.97
2022-09-20T14:02:22.179Z,14.99
2022-09-20T14:04:51.377Z,14.99
2022-09-20T14:07:18.175Z,15.00
2022-09-20T14:09:45.830Z,15.04
2022-09-20T14:12:14.268Z,15.05
2022-09-20T14:14:41.830Z,15.09
2022-09-20T14:17:09.696Z,15.12
2022-09-20T14:19:41.617Z,15.16
2022-09-20T14:22:14.030Z,15.20
2022-09-20T14:24:41.694Z,15.23
2022-09-20T14:27:18.440Z,15.26
2022-09-20T14:29:49.528Z,15.29
2022-09-20T14:32:19.366Z,15.35
2022-09-20T14:34:56.179Z,15.39
2022-09-20T14:37:42.505Z,15.45
2022-09-20T14:40:25.308Z,15.49
2022-09-20T14:42:55.776Z,15.52
2022-09-20T14:45:33.029Z,15.54
2022-09-20T14:48:22.110Z,15.54
2022-09-20T14:51:17.945Z,15.54
2022-09-20T14:54:12.067Z,15.50
2022-09-20T14:56:53.114Z,15.45
2022-09-20T14:59:24.961Z,15.38
2022-09-20T15:01:54.496Z,15.32
2022-09-20T15:04:23.075Z,15.26
2022-09-20T15:06:51.253Z,15.21
2022-09-20T15:09:19.863Z,15.16
2022-09-20T15:11:47.016Z,15.13
2022-09-20T15:14:13.776Z,15.11
2022-09-20T15:16:40.586Z,15.07
2022-09-20T15:19:08.539Z,15.04
2022-09-20T15:21:35.392Z,15.02
2022-09-20T15:24:02.230Z,15.01
2022-09-20T15:26:32.589Z,15.00
2022-09-20T15:29:00.121Z,15.01
2022-09-20T15:31:28.211Z,15.03
2022-09-20T15:33:54.993Z,15.03
2022-09-20T15:36:21.731Z,15.04
2022-09-20T15:38:48.963Z,15.05
2022-09-20T15:41:15.691Z,15.07
2022-09-20T15:43:43.374Z,15.10
2022-09-20T15:46:22.087Z,15.13
2022-09-20T15:48:49.010Z,15.15
2022-09-20T15:51:16.574Z,15.16
2022-09-20T15:53:54.198Z,15.17
2022-09-20T15:56:32.498Z,15.17
2022-09-20T15:59:07.877Z,15.17
2022-09-20T16:01:40.008Z,15.17
2022-09-20T16:04:12.479Z,15.14
2022-09-20T16:06:40.832Z,15.12
2022-09-20T16:09:08.161Z,15.12
2022-09-20T16:11:35.549Z,15.09
2022-09-20T16:14:02.916Z,15.07
2022-09-20T16:16:33.993Z,15.05
2022-09-20T16:19:18.046Z,15.01
2022-09-20T16:21:58.913Z,14.99
2022-09-20T16:24:34.095Z,14.95
2022-09-20T16:27:02.657Z,14.92
2022-09-20T16:29:30.677Z,14.91
2022-09-20T16:31:59.142Z,14.87
2022-09-20T16:34:36.674Z,14.83
2022-09-20T16:37:20.515Z,14.81
2022-09-20T16:39:47.542Z,14.77
2022-09-20T16:42:15.410Z,14.73
2022-09-20T16:44:43.179Z,14.69
2022-09-20T16:47:20.521Z,14.62
2022-09-20T16:49:47.906Z,14.54
2022-09-20T16:52:14.703Z,14.49
2022-09-20T16:54:41.517Z,14.41
2022-09-20T16:57:09.516Z,14.35
2022-09-20T16:59:36.253Z,14.32
2022-09-20T17:02:03.005Z,14.26
2022-09-20T17:04:30.244Z,14.18
2022-09-20T17:06:57.111Z,14.14
2022-09-20T17:09:23.925Z,14.04
2022-09-20T17:11:51.418Z,13.97
2022-09-20T17:14:20.472Z,13.94
2022-09-20T17:16:49.206Z,13.87
2022-09-20T17:19:20.653Z,13.82
2022-09-20T17:21:52.915Z,13.80
2022-09-20T17:24:21.543Z,13.72
2022-09-20T17:26:50.467Z,13.69
2022-09-20T17:29:18.998Z,13.65
2022-09-20T17:31:53.989Z,13.59
2022-09-20T17:34:22.011Z,13.54
2022-09-20T17:36:49.432Z,13.45
2022-09-20T17:39:16.915Z,13.41
2022-09-20T17:41:46.446Z,13.37
2022-09-20T17:44:13.694Z,13.35
2022-09-20T17:46:42.505Z,13.30
2022-09-20T17:49:12.290Z,13.27
2022-09-20T17:51:50.749Z,13.24
2022-09-20T17:54:18.562Z,13.20
2022-09-20T17:56:50.386Z,13.15
2022-09-20T17:59:18.675Z,13.08
2022-09-20T18:01:47.582Z,13.03
2022-09-20T18:04:14.391Z,12.97
2022-09-20T18:06:45.416Z,12.92
2022-09-20T18:09:15.627Z,12.89
2022-09-20T18:11:50.650Z,12.90
2022-09-20T18:14:20.418Z,12.84
2022-09-20T18:16:47.402Z,12.78
2022-09-20T18:19:16.060Z,12.72
2022-09-20T18:21:43.685Z,12.68
2022-09-20T18:24:11.707Z,12.61
2022-09-20T18:26:40.163Z,12.58
2022-09-20T18:29:11.218Z,12.57
2022-09-20T18:31:39.841Z,12.54
2022-09-20T18:34:08.520Z,12.48
2022-09-20T18:36:37.306Z,12.45
2022-09-20T18:39:04.191Z,12.37
2022-09-20T18:41:33.482Z,12.33
2022-09-20T18:44:04.039Z,12.27
2022-09-20T18:46:31.463Z,12.25
2022-09-20T18:49:05.139Z,12.21
2022-09-20T18:51:35.869Z,12.17
2022-09-20T18:54:06.238Z,12.16
2022-09-20T18:56:35.736Z,12.12
2022-09-20T18:59:09.239Z,12.07
2022-09-20T19:01:55.938Z,12.05
2022-09-20T19:04:40.862Z,12.04
2022-09-20T19:07:53.876Z,11.99
2022-09-20T19:10:38.219Z,11.95
2022-09-20T19:13:32.553Z,11.91
2022-09-20T19:16:17.408Z,11.85
2022-09-20T19:19:02.762Z,11.79
2022-09-20T19:21:39.505Z,11.71
2022-09-20T19:24:24.585Z,11.69
2022-09-20T19:26:51.632Z,11.68
2022-09-20T19:29:26.939Z,11.68
2022-09-20T19:31:56.170Z,11.59
2022-09-20T19:34:28.539Z,11.55
2022-09-20T19:36:55.229Z,11.51
2022-09-20T19:39:21.908Z,11.48
2022-09-20T19:41:59.992Z,11.48
2022-09-20T19:44:43.537Z,11.44
2022-09-20T19:47:20.884Z,11.40
2022-09-20T19:49:55.018Z,11.34
2022-09-20T19:52:23.171Z,11.32
2022-09-20T19:54:51.385Z,11.29
2022-09-20T19:57:23.838Z,11.25
2022-09-20T19:59:51.086Z,11.24
2022-09-20T20:02:18.551Z,11.21
2022-09-20T20:04:45.497Z,11.17
2022-09-20T20:08:08.752Z,11.10
2022-09-20T20:10:53.486Z,11.12
2022-09-20T20:13:59.935Z,11.06
2022-09-20T20:16:41.563Z,11.10
2022-09-20T20:19:14.005Z,11.03
2022-09-20T20:21:46.433Z,10.97
2022-09-20T20:24:36.581Z,10.93
2022-09-20T20:27:04.043Z,10.92
2022-09-20T20:29:30.853Z,10.90
2022-09-20T20:31:57.625Z,10.86
2022-09-20T20:34:26.645Z,10.81
2022-09-20T20:37:01.015Z,10.82
2022-09-20T20:39:29.774Z,10.79
2022-09-20T20:42:01.822Z,10.79
2022-09-20T20:44:36.031Z,10.72
2022-09-20T20:47:04.544Z,10.69
2022-09-20T20:49:31.411Z,10.67
2022-09-20T20:51:59.753Z,10.69
2022-09-20T20:54:26.536Z,10.66
2022-09-20T20:56:53.287Z,10.63
2022-09-20T20:59:20.035Z,10.60
2022-09-20T21:01:46.884Z,10.59
2022-09-20T21:04:15.323Z,10.59
2022-09-20T21:06:42.219Z,10.54
2022-09-20T21:09:10.712Z,10.52
2022-09-20T21:11:39.395Z,10.50
2022-09-20T21:14:07.358Z,10.50
2022-09-20T21:16:37.536Z,10.47
2022-09-20T21:19:05.969Z,10.44
2022-09-20T21:21:38.626Z,10.46
2022-09-20T21:24:07.988Z,10.48
2022-09-20T21:26:37.076Z,10.44
2022-09-20T21:29:06.486Z,10.39
2022-09-20T21:31:36.043Z,10.37
2022-09-20T21:34:10.506Z,10.34
2022-09-20T21:36:39.264Z,10.31
2022-09-20T21:39:06.512Z,10.32
2022-09-20T21:41:35.498Z,10.28
2022-09-20T21:44:04.538Z,10.24
2022-09-20T21:46:42.403Z,10.26
2022-09-20T21:49:11.265Z,10.26
2022-09-20T21:51:39.574Z,10.22
2022-09-20T21:54:06.574Z,10.21
2022-09-20T21:56:37.994Z,10.15
2022-09-20T21:59:06.353Z,10.12
2022-09-20T22:01:35.928Z,10.12
2022-09-20T22:04:20.851Z,10.10
2022-09-20T22:06:47.591Z,10.09
2022-09-20T22:09:16.830Z,10.08
2022-09-20T22:11:48.400Z,10.05
2022-09-20T22:14:19.183Z,10.05
2022-09-20T22:16:47.818Z,10.03
2022-09-20T22:19:17.210Z,10.02
2022-09-20T22:21:46.442Z,10.01
2022-09-20T22:24:15.104Z,10.00
2022-09-20T22:26:44.938Z,9.96
2022-09-20T22:29:12.070Z,9.95
2022-09-20T22:31:45.019Z,9.92
2022-09-20T22:34:15.274Z,9.94
2022-09-20T22:36:43.034Z,9.91
2022-09-20T22:39:11.415Z,9.91
2022-09-20T22:41:39.558Z,9.92
2022-09-20T22:44:06.525Z,9.84
2022-09-20T22:46:34.617Z,9.87
2022-09-20T22:49:01.565Z,9.83
2022-09-20T22:51:33.337Z,9.83
2022-09-20T22:54:04.270Z,9.81
2022-09-20T22:56:31.500Z,9.77
2022-09-20T22:59:06.839Z,9.74
2022-09-20T23:01:35.987Z,9.70
2022-09-20T23:04:07.742Z,9.72
2022-09-20T23:06:40.362Z,9.72
2022-09-20T23:09:10.166Z,9.69
2022-09-20T23:11:38.848Z,9.68
2022-09-20T23:14:06.412Z,9.70
2022-09-20T23:16:35.979Z,9.68
2022-09-20T23:19:04.827Z,9.66
2022-09-20T23:21:32.646Z,9.65
2022-09-20T23:24:02.052Z,9.65
2022-09-20T23:26:31.610Z,9.63
2022-09-20T23:28:59.575Z,9.62
2022-09-20T23:31:27.386Z,9.62
2022-09-20T23:33:56.683Z,9.60
2022-09-20T23:36:24.867Z,9.59
2022-09-20T23:38:52.154Z,9.61
2022-09-20T23:41:21.623Z,9.60
2022-09-20T23:43:48.585Z,9.57
2022-09-20T23:46:17.682Z,9.59
2022-09-20T23:48:45.095Z,9.60
2022-09-20T23:51:15.013Z,9.58
2022-09-20T23:53:42.838Z,9.57
2022-09-20T23:56:10.967Z,9.55
2022-09-20T23:58:39.232Z,9.55
